createdAt,value
2018-02-08T00:00:09.295Z,0.41
2018-02-08T00:01:09.363Z,0.47
2018-02-08T00:02:09.419Z,0.50
2018-02-08T00:03:09.545Z,0.47
2018-02-08T00:04:09.541Z,0.50
2018-02-08T00:05:09.617Z,0.46
2018-02-08T00:06:09.676Z,0.44
2018-02-08T00:07:09.741Z,0.39
2018-02-08T00:08:09.804Z,0.39
2018-02-08T00:09:09.867Z,0.33
2018-02-08T00:10:09.926Z,0.33
2018-02-08T00:11:09.996Z,0.33
2018-02-08T00:12:10.055Z,0.31
2018-02-08T00:13:10.119Z,0.33
2018-02-08T00:14:10.210Z,0.26
2018-02-08T00:15:10.245Z,0.26
2018-02-08T00:16:10.309Z,0.28
2018-02-08T00:17:10.370Z,0.29
2018-02-08T00:18:10.434Z,0.18
2018-02-08T00:19:10.637Z,0.24
2018-02-08T00:20:10.568Z,0.28
2018-02-08T00:21:10.621Z,0.29
2018-02-08T00:22:10.675Z,0.14
2018-02-08T00:23:10.751Z,0.28
2018-02-08T00:24:10.809Z,0.28
2018-02-08T00:25:10.873Z,0.20
2018-02-08T00:26:10.933Z,0.20
2018-02-08T00:27:10.991Z,0.17
2018-02-08T00:28:11.067Z,0.10
2018-02-08T00:29:11.119Z,0.11
2018-02-08T00:30:11.188Z,0.17
2018-02-08T00:31:11.250Z,0.11
2018-02-08T00:32:11.315Z,0.11
2018-02-08T00:33:11.376Z,0.11
2018-02-08T00:34:11.440Z,0.13
2018-02-08T00:35:11.512Z,0.10
2018-02-08T00:36:11.561Z,0.07
2018-02-08T00:37:11.625Z,-0.03
2018-02-08T00:38:11.695Z,-0.10
2018-02-08T00:39:11.760Z,-0.04
2018-02-08T00:40:11.818Z,-0.07
2018-02-08T00:41:11.882Z,-0.14
2018-02-08T00:42:11.948Z,-0.05
2018-02-08T00:43:12.003Z,-0.07
2018-02-08T00:44:13.443Z,-0.05
2018-02-08T00:45:12.129Z,-0.10
2018-02-08T00:46:12.195Z,-0.04
2018-02-08T00:47:12.259Z,-0.07
2018-02-08T00:48:12.321Z,-0.01
2018-02-08T00:49:12.384Z,-0.08
2018-02-08T00:50:12.442Z,-0.11
2018-02-08T00:51:12.505Z,-0.15
2018-02-08T00:52:12.586Z,-0.14
2018-02-08T00:53:12.647Z,-0.14
2018-02-08T00:54:12.696Z,-0.08
2018-02-08T00:55:12.759Z,-0.04
2018-02-08T00:56:12.820Z,-0.11
2018-02-08T00:57:12.897Z,-0.08
2018-02-08T00:58:12.947Z,-0.14
2018-02-08T00:59:13.023Z,-0.14
2018-02-08T01:00:13.087Z,-0.15
2018-02-08T01:01:13.137Z,-0.11
2018-02-08T01:02:13.196Z,-0.16
2018-02-08T01:03:13.268Z,-0.21
2018-02-08T01:04:13.315Z,-0.23
2018-02-08T01:05:13.381Z,-0.18
2018-02-08T01:06:13.447Z,-0.23
2018-02-08T01:07:13.516Z,-0.23
2018-02-08T01:08:13.574Z,-0.23
2018-02-08T01:09:13.630Z,-0.22
2018-02-08T01:10:13.718Z,-0.22
2018-02-08T01:11:13.764Z,-0.25
2018-02-08T01:12:13.821Z,-0.22
2018-02-08T01:13:13.883Z,-0.33
2018-02-08T01:14:13.943Z,-0.33
2018-02-08T01:15:14.016Z,-0.23
2018-02-08T01:16:14.098Z,-0.28
2018-02-08T01:17:14.136Z,-0.29
2018-02-08T01:18:14.197Z,-0.28
2018-02-08T01:19:14.263Z,-0.28
2018-02-08T01:20:14.335Z,-0.29
2018-02-08T01:21:17.996Z,-0.31
2018-02-08T01:22:14.455Z,-0.28
2018-02-08T01:23:14.513Z,-0.29
2018-02-08T01:24:14.573Z,-0.28
2018-02-08T01:25:14.638Z,-0.36
2018-02-08T01:26:14.712Z,-0.33
2018-02-08T01:27:14.761Z,-0.33
2018-02-08T01:28:14.944Z,-0.40
2018-02-08T01:29:14.891Z,-0.37
2018-02-08T01:30:14.945Z,-0.42
2018-02-08T01:31:15.012Z,-0.47
2018-02-08T01:32:15.085Z,-0.51
2018-02-08T01:33:15.142Z,-0.44
2018-02-08T01:34:15.206Z,-0.47
2018-02-08T01:35:15.275Z,-0.44
2018-02-08T01:36:15.358Z,-0.46
2018-02-08T01:37:15.398Z,-0.52
2018-02-08T01:38:15.452Z,-0.47
2018-02-08T01:39:15.516Z,-0.42
2018-02-08T01:40:15.577Z,-0.51
2018-02-08T01:41:15.640Z,-0.49
2018-02-08T01:42:15.703Z,-0.49
2018-02-08T01:43:15.767Z,-0.52
2018-02-08T01:44:15.831Z,-0.47
2018-02-08T01:45:15.888Z,-0.51
2018-02-08T01:46:15.953Z,-0.54
2018-02-08T01:47:16.013Z,-0.54
2018-02-08T01:48:16.075Z,-0.49
2018-02-08T01:49:16.138Z,-0.54
2018-02-08T01:50:16.222Z,-0.57
2018-02-08T01:51:16.261Z,-0.52
2018-02-08T01:52:16.329Z,-0.55
2018-02-08T01:53:16.382Z,-0.67
2018-02-08T01:54:16.477Z,-0.55
2018-02-08T01:55:16.514Z,-0.65
2018-02-08T01:56:16.578Z,-0.64
2018-02-08T01:57:16.653Z,-0.61
2018-02-08T01:58:16.704Z,-0.64
2018-02-08T01:59:16.764Z,-0.64
2018-02-08T02:00:16.824Z,-0.70
2018-02-08T02:01:16.892Z,-0.72
2018-02-08T02:02:16.952Z,-0.65
2018-02-08T02:03:17.016Z,-0.67
2018-02-08T02:04:17.091Z,-0.67
2018-02-08T02:05:17.140Z,-0.75
2018-02-08T02:06:17.196Z,-0.67
2018-02-08T02:07:17.271Z,-0.69
2018-02-08T02:08:17.327Z,-0.75
2018-02-08T02:09:17.389Z,-0.69
2018-02-08T02:10:17.454Z,-0.72
2018-02-08T02:11:17.516Z,-0.72
2018-02-08T02:12:17.577Z,-0.76
2018-02-08T02:13:17.642Z,-0.75
2018-02-08T02:14:17.720Z,-0.72
2018-02-08T02:15:17.772Z,-0.78
2018-02-08T02:16:17.827Z,-0.79
2018-02-08T02:17:17.888Z,-0.82
2018-02-08T02:18:17.971Z,-0.80
2018-02-08T02:19:18.073Z,-0.82
2018-02-08T02:20:18.073Z,-0.85
2018-02-08T02:21:18.136Z,-0.78
2018-02-08T02:22:18.224Z,-0.80
2018-02-08T02:23:18.265Z,-0.82
2018-02-08T02:24:18.322Z,-0.82
2018-02-08T02:25:18.385Z,-0.82
2018-02-08T02:26:18.457Z,-0.82
2018-02-08T02:27:18.505Z,-0.80
2018-02-08T02:28:18.578Z,-0.80
2018-02-08T02:29:18.701Z,-0.85
2018-02-08T02:30:18.693Z,-0.86
2018-02-08T02:31:18.766Z,-0.89
2018-02-08T02:32:18.826Z,-0.91
2018-02-08T02:33:18.901Z,-1.07
2018-02-08T02:34:18.941Z,-0.94
2018-02-08T02:35:19.013Z,-0.99
2018-02-08T02:36:19.076Z,-0.99
2018-02-08T02:37:19.135Z,-0.97
2018-02-08T02:38:19.192Z,-0.98
2018-02-08T02:39:19.260Z,-0.95
2018-02-08T02:40:19.325Z,-0.97
2018-02-08T02:41:19.532Z,-0.95
2018-02-08T02:42:19.443Z,-0.99
2018-02-08T02:43:19.538Z,-1.02
2018-02-08T02:44:19.653Z,-1.07
2018-02-08T02:45:19.632Z,-0.95
2018-02-08T02:46:19.696Z,-0.99
2018-02-08T02:47:19.781Z,-0.95
2018-02-08T02:48:19.824Z,-1.01
2018-02-08T02:49:19.886Z,-1.01
2018-02-08T02:50:19.940Z,-1.01
2018-02-08T02:51:20.001Z,-0.99
2018-02-08T02:52:20.073Z,-0.97
2018-02-08T02:53:20.131Z,-0.97
2018-02-08T02:54:20.187Z,-1.02
2018-02-08T02:55:20.249Z,-0.97
2018-02-08T02:56:20.321Z,-1.04
2018-02-08T02:57:20.377Z,-1.07
2018-02-08T02:58:20.444Z,-0.97
2018-02-08T02:59:20.512Z,-1.05
2018-02-08T03:00:20.584Z,-1.05
2018-02-08T03:01:20.639Z,-1.12
2018-02-08T03:02:20.689Z,-1.07
2018-02-08T03:03:22.789Z,-1.05
2018-02-08T03:04:20.813Z,-1.02
2018-02-08T03:05:20.886Z,-1.04
2018-02-08T03:06:20.943Z,-1.05
2018-02-08T03:07:21.002Z,-1.10
2018-02-08T03:08:21.079Z,-1.12
2018-02-08T03:09:21.139Z,-1.07
2018-02-08T03:10:21.179Z,-1.01
2018-02-08T03:11:21.255Z,-1.04
2018-02-08T03:12:21.311Z,-0.99
2018-02-08T03:13:21.378Z,-1.10
2018-02-08T03:14:21.435Z,-0.99
2018-02-08T03:15:21.495Z,-1.12
2018-02-08T03:16:21.559Z,-1.12
2018-02-08T03:17:21.623Z,-1.09
2018-02-08T03:18:21.678Z,-1.13
2018-02-08T03:19:21.746Z,-1.09
2018-02-08T03:20:21.816Z,-1.16
2018-02-08T03:21:21.873Z,-1.16
2018-02-08T03:22:21.930Z,-1.13
2018-02-08T03:23:21.995Z,-1.13
2018-02-08T03:24:22.052Z,-1.09
2018-02-08T03:25:22.116Z,-1.17
2018-02-08T03:26:22.180Z,-1.12
2018-02-08T03:27:22.245Z,-1.23
2018-02-08T03:28:22.301Z,-1.10
2018-02-08T03:29:22.359Z,-1.12
2018-02-08T03:30:22.426Z,-1.22
2018-02-08T03:31:22.482Z,-1.23
2018-02-08T03:32:22.559Z,-1.20
2018-02-08T03:33:22.614Z,-1.19
2018-02-08T03:34:22.675Z,-1.22
2018-02-08T03:35:22.739Z,-1.20
2018-02-08T03:36:22.803Z,-1.31
2018-02-08T03:37:22.861Z,-1.23
2018-02-08T03:38:22.927Z,-1.38
2018-02-08T03:39:22.986Z,-1.22
2018-02-08T03:40:23.043Z,-1.22
2018-02-08T03:41:23.109Z,-1.27
2018-02-08T03:42:23.163Z,-1.28
2018-02-08T03:43:23.237Z,-1.28
2018-02-08T03:44:23.292Z,-1.23
2018-02-08T03:45:23.356Z,-1.38
2018-02-08T03:46:23.420Z,-1.31
2018-02-08T03:47:23.478Z,-1.34
2018-02-08T03:48:23.537Z,-1.33
2018-02-08T03:49:23.608Z,-1.31
2018-02-08T03:50:23.693Z,-1.37
2018-02-08T03:51:23.730Z,-1.30
2018-02-08T03:52:23.788Z,-1.34
2018-02-08T03:53:23.849Z,-1.31
2018-02-08T03:54:23.909Z,-1.35
2018-02-08T03:55:23.977Z,-1.38
2018-02-08T03:56:24.043Z,-1.41
2018-02-08T03:57:24.095Z,-1.38
2018-02-08T03:58:24.218Z,-1.34
2018-02-08T03:59:24.221Z,-1.33
2018-02-08T04:00:24.286Z,-1.30
2018-02-08T04:01:24.350Z,-1.40
2018-02-08T04:02:24.411Z,-1.35
2018-02-08T04:03:24.470Z,-1.34
2018-02-08T04:04:24.530Z,-1.37
2018-02-08T04:05:24.608Z,-1.40
2018-02-08T04:06:24.654Z,-1.28
2018-02-08T04:07:24.717Z,-1.35
2018-02-08T04:08:24.780Z,-1.30
2018-02-08T04:09:24.839Z,-1.38
2018-02-08T04:10:24.913Z,-1.38
2018-02-08T04:11:24.973Z,-1.46
2018-02-08T04:12:25.026Z,-1.43
2018-02-08T04:13:25.090Z,-1.33
2018-02-08T04:14:25.151Z,-1.46
2018-02-08T04:15:25.224Z,-1.35
2018-02-08T04:16:25.279Z,-1.34
2018-02-08T04:17:25.351Z,-1.38
2018-02-08T04:18:25.395Z,-1.43
2018-02-08T04:19:25.472Z,-1.43
2018-02-08T04:20:25.525Z,-1.38
2018-02-08T04:21:25.584Z,-1.48
2018-02-08T04:22:25.644Z,-1.35
2018-02-08T04:23:25.705Z,-1.37
2018-02-08T04:24:25.773Z,-1.38
2018-02-08T04:25:25.832Z,-1.40
2018-02-08T04:26:25.891Z,-1.43
2018-02-08T04:27:25.957Z,-1.34
2018-02-08T04:28:26.033Z,-1.46
2018-02-08T04:29:26.075Z,-1.45
2018-02-08T04:30:26.144Z,-1.49
2018-02-08T04:31:26.207Z,-1.46
2018-02-08T04:32:26.268Z,-1.49
2018-02-08T04:33:26.327Z,-1.51
2018-02-08T04:34:26.388Z,-1.52
2018-02-08T04:35:26.453Z,-1.58
2018-02-08T04:36:26.511Z,-1.49
2018-02-08T04:37:26.584Z,-1.45
2018-02-08T04:38:26.640Z,-1.55
2018-02-08T04:39:26.697Z,-1.58
2018-02-08T04:40:26.769Z,-1.61
2018-02-08T04:41:26.825Z,-1.61
2018-02-08T04:42:26.884Z,-1.59
2018-02-08T04:43:26.946Z,-1.54
2018-02-08T04:44:27.010Z,-1.55
2018-02-08T04:45:27.063Z,-1.52
2018-02-08T04:46:27.134Z,-1.58
2018-02-08T04:47:27.193Z,-1.55
2018-02-08T04:48:27.254Z,-1.58
2018-02-08T04:49:27.314Z,-1.59
2018-02-08T04:50:27.427Z,-1.61
2018-02-08T04:51:27.439Z,-1.55
2018-02-08T04:52:27.502Z,-1.59
2018-02-08T04:53:27.570Z,-1.62
2018-02-08T04:54:27.624Z,-1.64
2018-02-08T04:55:27.705Z,-1.54
2018-02-08T04:56:27.753Z,-1.55
2018-02-08T04:57:27.809Z,-1.58
2018-02-08T04:58:27.880Z,-1.61
2018-02-08T04:59:27.931Z,-1.58
2018-02-08T05:00:27.994Z,-1.56
2018-02-08T05:01:28.059Z,-1.54
2018-02-08T05:02:28.117Z,-1.61
2018-02-08T05:03:28.191Z,-1.61
2018-02-08T05:04:28.244Z,-1.64
2018-02-08T05:05:28.306Z,-1.64
2018-02-08T05:06:28.369Z,-1.62
2018-02-08T05:07:28.426Z,-1.62
2018-02-08T05:08:28.494Z,-1.66
2018-02-08T05:09:28.551Z,-1.64
2018-02-08T05:10:28.610Z,-1.67
2018-02-08T05:11:28.667Z,-1.73
2018-02-08T05:12:28.735Z,-1.62
2018-02-08T05:13:28.801Z,-1.69
2018-02-08T05:14:28.861Z,-1.66
2018-02-08T05:15:28.927Z,-1.69
2018-02-08T05:16:28.981Z,-1.70
2018-02-08T05:17:29.055Z,-1.74
2018-02-08T05:18:29.107Z,-1.72
2018-02-08T05:19:29.173Z,-1.70
2018-02-08T05:20:29.241Z,-1.74
2018-02-08T05:21:29.292Z,-1.77
2018-02-08T05:22:29.357Z,-1.73
2018-02-08T05:23:29.413Z,-1.67
2018-02-08T05:24:29.477Z,-1.74
2018-02-08T05:25:29.537Z,-1.70
2018-02-08T05:26:29.597Z,-1.77
2018-02-08T05:27:29.663Z,-1.69
2018-02-08T05:28:29.723Z,-1.73
2018-02-08T05:29:29.786Z,-1.73
2018-02-08T05:30:29.844Z,-1.74
2018-02-08T05:31:29.907Z,-1.72
2018-02-08T05:32:29.972Z,-1.80
2018-02-08T05:33:30.024Z,-1.73
2018-02-08T05:34:30.099Z,-1.82
2018-02-08T05:35:30.153Z,-1.73
2018-02-08T05:36:30.229Z,-1.76
2018-02-08T05:37:30.278Z,-1.73
2018-02-08T05:38:30.346Z,-1.77
2018-02-08T05:39:30.407Z,-1.82
2018-02-08T05:40:30.472Z,-1.76
2018-02-08T05:41:30.523Z,-1.79
2018-02-08T05:42:30.591Z,-1.77
2018-02-08T05:43:30.639Z,-1.79
2018-02-08T05:44:30.699Z,-1.76
2018-02-08T05:45:30.805Z,-1.74
2018-02-08T05:46:30.834Z,-1.91
2018-02-08T05:47:30.949Z,-1.80
2018-02-08T05:48:30.962Z,-1.90
2018-02-08T05:49:31.010Z,-1.88
2018-02-08T05:50:31.080Z,-1.87
2018-02-08T05:51:31.148Z,-1.92
2018-02-08T05:52:31.198Z,-1.95
2018-02-08T05:53:31.264Z,-1.92
2018-02-08T05:54:31.321Z,-1.92
2018-02-08T05:55:31.390Z,-1.90
2018-02-08T05:56:31.442Z,-1.90
2018-02-08T05:57:31.510Z,-1.87
2018-02-08T05:58:31.578Z,-1.79
2018-02-08T05:59:31.637Z,-1.77
2018-02-08T06:00:31.684Z,-1.79
2018-02-08T06:01:31.754Z,-1.77
2018-02-08T06:02:31.811Z,-1.87
2018-02-08T06:03:31.916Z,-1.94
2018-02-08T06:04:32.006Z,-1.97
2018-02-08T06:05:32.003Z,-1.82
2018-02-08T06:06:32.077Z,-1.85
2018-02-08T06:07:32.123Z,-1.91
2018-02-08T06:08:32.218Z,-1.91
2018-02-08T06:09:32.247Z,-1.94
2018-02-08T06:10:32.302Z,-1.80
2018-02-08T06:11:32.369Z,-1.79
2018-02-08T06:12:32.436Z,-1.76
2018-02-08T06:13:32.491Z,-1.88
2018-02-08T06:14:32.560Z,-1.80
2018-02-08T06:15:32.617Z,-1.82
2018-02-08T06:16:32.680Z,-1.88
2018-02-08T06:17:32.735Z,-1.84
2018-02-08T06:18:32.802Z,-1.95
2018-02-08T06:19:32.858Z,-1.95
2018-02-08T06:20:32.924Z,-1.90
2018-02-08T06:21:32.990Z,-1.97
2018-02-08T06:22:33.047Z,-1.94
2018-02-08T06:23:33.108Z,-1.92
2018-02-08T06:24:33.170Z,-2.00
2018-02-08T06:25:33.251Z,-1.95
2018-02-08T06:26:33.301Z,-1.92
2018-02-08T06:27:33.371Z,-1.92
2018-02-08T06:28:33.422Z,-1.92
2018-02-08T06:29:33.477Z,-1.95
2018-02-08T06:30:33.559Z,-1.95
2018-02-08T06:31:33.603Z,-1.97
2018-02-08T06:32:33.658Z,-1.95
2018-02-08T06:33:33.723Z,-1.91
2018-02-08T06:34:33.785Z,-1.94
2018-02-08T06:35:33.855Z,-1.98
2018-02-08T06:36:33.902Z,-1.95
2018-02-08T06:37:33.971Z,-1.94
2018-02-08T06:38:34.030Z,-1.95
2018-02-08T06:39:34.110Z,-1.94
2018-02-08T06:40:34.153Z,-1.91
2018-02-08T06:41:34.217Z,-1.90
2018-02-08T06:42:34.316Z,-1.88
2018-02-08T06:43:34.425Z,-1.87
2018-02-08T06:44:34.394Z,-1.84
2018-02-08T06:45:34.459Z,-1.90
2018-02-08T06:46:34.531Z,-1.80
2018-02-08T06:47:34.579Z,-1.94
2018-02-08T06:48:34.639Z,-1.82
2018-02-08T06:49:34.805Z,-1.76
2018-02-08T06:50:34.766Z,-1.80
2018-02-08T06:51:34.832Z,-1.70
2018-02-08T06:52:34.939Z,-1.76
2018-02-08T06:53:34.953Z,-1.76
2018-02-08T06:54:35.015Z,-1.76
2018-02-08T06:55:35.080Z,-1.76
2018-02-08T06:56:35.148Z,-1.72
2018-02-08T06:57:35.218Z,-1.69
2018-02-08T06:58:35.264Z,-1.73
2018-02-08T06:59:35.323Z,-1.67
2018-02-08T07:00:35.383Z,-1.66
2018-02-08T07:01:35.448Z,-1.67
2018-02-08T07:02:35.503Z,-1.67
2018-02-08T07:03:35.579Z,-1.67
2018-02-08T07:04:35.628Z,-1.56
2018-02-08T07:05:35.698Z,-1.52
2018-02-08T07:06:35.746Z,-1.54
2018-02-08T07:07:35.813Z,-1.43
2018-02-08T07:08:35.871Z,-1.43
2018-02-08T07:09:35.945Z,-1.38
2018-02-08T07:10:36.003Z,-1.38
2018-02-08T07:11:36.069Z,-1.34
2018-02-08T07:12:36.121Z,-1.15
2018-02-08T07:13:36.189Z,-1.30
2018-02-08T07:14:36.241Z,-1.12
2018-02-08T07:15:36.305Z,-1.02
2018-02-08T07:16:36.366Z,-0.99
2018-02-08T07:17:36.432Z,-0.94
2018-02-08T07:18:36.610Z,-0.97
2018-02-08T07:19:36.562Z,-0.99
2018-02-08T07:20:36.617Z,-0.83
2018-02-08T07:21:36.682Z,-0.86
2018-02-08T07:22:36.749Z,-0.75
2018-02-08T07:23:36.794Z,-0.70
2018-02-08T07:24:36.861Z,-0.72
2018-02-08T07:25:36.928Z,-0.55
2018-02-08T07:26:36.989Z,-0.54
2018-02-08T07:27:37.064Z,-0.40
2018-02-08T07:28:37.130Z,-0.33
2018-02-08T07:29:37.170Z,-0.18
2018-02-08T07:30:37.239Z,-0.14
2018-02-08T07:31:37.294Z,-0.04
2018-02-08T07:32:37.356Z,0.02
2018-02-08T07:33:37.418Z,0.08
2018-02-08T07:34:37.490Z,0.21
2018-02-08T07:35:37.546Z,0.26
2018-02-08T07:36:37.608Z,0.39
2018-02-08T07:37:37.671Z,0.44
2018-02-08T07:38:37.733Z,0.58
2018-02-08T07:39:37.792Z,0.72
2018-02-08T07:40:37.860Z,1.11
2018-02-08T07:41:37.924Z,2.14
2018-02-08T07:42:37.977Z,3.43
2018-02-08T07:43:38.055Z,4.45
2018-02-08T07:44:38.112Z,5.53
2018-02-08T07:45:38.168Z,6.36
2018-02-08T07:46:38.233Z,7.25
2018-02-08T07:47:38.298Z,8.07
2018-02-08T07:48:38.376Z,8.79
2018-02-08T07:49:38.430Z,9.58
2018-02-08T07:50:38.488Z,10.32
2018-02-08T07:51:38.560Z,10.86
2018-02-08T07:52:38.659Z,11.49
2018-02-08T07:53:38.685Z,12.12
2018-02-08T07:54:38.782Z,12.67
2018-02-08T07:55:38.831Z,13.29
2018-02-08T07:56:38.889Z,13.92
2018-02-08T07:57:38.963Z,14.24
2018-02-08T07:58:39.028Z,14.80
2018-02-08T07:59:39.098Z,15.34
2018-02-08T08:00:39.156Z,15.90
2018-02-08T08:01:39.230Z,16.46
2018-02-08T08:02:39.299Z,16.93
2018-02-08T08:03:39.370Z,17.22
2018-02-08T08:04:39.435Z,17.52
2018-02-08T08:05:39.505Z,17.54
2018-02-08T08:06:39.573Z,17.82
2018-02-08T08:07:39.648Z,18.02
2018-02-08T08:08:39.708Z,18.36
2018-02-08T08:09:39.791Z,18.80
2018-02-08T08:10:39.847Z,19.07
2018-02-08T08:11:39.921Z,19.21
2018-02-08T08:12:39.996Z,19.62
2018-02-08T08:13:40.064Z,20.11
2018-02-08T08:14:40.450Z,20.17
2018-02-08T08:15:40.324Z,20.69
2018-02-08T08:16:40.283Z,20.92
2018-02-08T08:17:40.358Z,20.88
2018-02-08T08:18:40.428Z,20.58
2018-02-08T08:19:40.497Z,20.54
2018-02-08T08:20:40.584Z,20.61
2018-02-08T08:21:40.639Z,20.84
2018-02-08T08:22:40.723Z,21.06
2018-02-08T08:23:40.809Z,21.09
2018-02-08T08:24:40.865Z,20.94
2018-02-08T08:25:40.940Z,20.84
2018-02-08T08:26:41.014Z,20.89
2018-02-08T08:27:41.080Z,20.92
2018-02-08T08:28:41.191Z,20.85
2018-02-08T08:29:41.275Z,20.61
2018-02-08T08:30:41.306Z,20.16
2018-02-08T08:31:41.379Z,19.25
2018-02-08T08:32:41.448Z,19.29
2018-02-08T08:33:41.531Z,20.21
2018-02-08T08:34:41.598Z,20.48
2018-02-08T08:35:41.693Z,21.28
2018-02-08T08:36:41.773Z,22.09
2018-02-08T08:37:41.846Z,22.57
2018-02-08T08:38:41.904Z,23.38
2018-02-08T08:39:41.968Z,23.57
2018-02-08T08:40:42.478Z,23.57
2018-02-08T08:41:42.121Z,23.19
2018-02-08T08:42:42.201Z,22.42
2018-02-08T08:43:42.286Z,21.61
2018-02-08T08:44:42.348Z,21.03
2018-02-08T08:45:42.419Z,20.79
2018-02-08T08:46:42.490Z,20.18
2018-02-08T08:47:42.568Z,19.71
2018-02-08T08:48:42.643Z,19.14
2018-02-08T08:49:42.714Z,18.67
2018-02-08T08:50:42.787Z,18.30
2018-02-08T08:51:43.793Z,18.23
2018-02-08T08:52:42.940Z,18.12
2018-02-08T08:53:43.013Z,17.97
2018-02-08T08:54:43.094Z,18.66
2018-02-08T08:55:43.162Z,19.41
2018-02-08T08:56:43.233Z,20.02
2018-02-08T08:57:43.328Z,19.69
2018-02-08T08:58:43.373Z,18.99
2018-02-08T08:59:43.455Z,18.44
2018-02-08T09:00:43.537Z,18.00
2018-02-08T09:01:43.597Z,17.87
2018-02-08T09:02:43.671Z,17.82
2018-02-08T09:03:43.751Z,17.58
2018-02-08T09:04:43.824Z,17.41
2018-02-08T09:05:43.898Z,17.26
2018-02-08T09:06:43.955Z,17.03
2018-02-08T09:07:44.039Z,16.89
2018-02-08T09:08:44.115Z,16.57
2018-02-08T09:09:44.185Z,16.25
2018-02-08T09:10:44.257Z,16.05
2018-02-08T09:11:44.339Z,16.00
2018-02-08T09:12:44.396Z,16.04
2018-02-08T09:13:44.479Z,15.80
2018-02-08T09:14:44.544Z,15.75
2018-02-08T09:15:44.617Z,15.59
2018-02-08T09:16:44.689Z,15.31
2018-02-08T09:17:44.763Z,15.20
2018-02-08T09:18:44.826Z,15.21
2018-02-08T09:19:44.900Z,15.56
2018-02-08T09:20:44.979Z,15.35
2018-02-08T09:21:45.041Z,15.43
2018-02-08T09:22:45.116Z,15.32
2018-02-08T09:23:45.188Z,15.38
2018-02-08T09:24:45.261Z,15.59
2018-02-08T09:25:45.345Z,16.71
2018-02-08T09:26:45.395Z,17.46
2018-02-08T09:27:45.478Z,17.64
2018-02-08T09:28:45.549Z,17.70
2018-02-08T09:29:45.618Z,17.99
2018-02-08T09:30:45.687Z,18.65
2018-02-08T09:31:45.760Z,19.08
2018-02-08T09:32:45.836Z,18.81
2018-02-08T09:33:45.909Z,18.02
2018-02-08T09:34:45.973Z,17.66
2018-02-08T09:35:46.075Z,17.30
2018-02-08T09:36:46.123Z,16.76
2018-02-08T09:37:46.199Z,16.20
2018-02-08T09:38:46.268Z,15.87
2018-02-08T09:39:46.336Z,15.44
2018-02-08T09:40:46.425Z,15.01
2018-02-08T09:41:46.521Z,14.80
2018-02-08T09:42:46.563Z,14.62
2018-02-08T09:43:46.640Z,14.39
2018-02-08T09:44:46.726Z,14.40
2018-02-08T09:45:46.768Z,14.42
2018-02-08T09:46:46.868Z,14.32
2018-02-08T09:47:46.919Z,14.17
2018-02-08T09:48:46.990Z,14.00
2018-02-08T09:49:47.072Z,13.91
2018-02-08T09:50:47.128Z,14.04
2018-02-08T09:51:47.231Z,14.10
2018-02-08T09:52:47.267Z,13.67
2018-02-08T09:53:47.339Z,13.67
2018-02-08T09:54:47.431Z,13.67
2018-02-08T09:55:47.577Z,13.55
2018-02-08T09:56:47.551Z,13.41
2018-02-08T09:57:47.623Z,13.12
2018-02-08T09:58:47.705Z,13.20
2018-02-08T09:59:47.834Z,13.15
2018-02-08T10:00:47.837Z,13.03
2018-02-08T10:01:47.988Z,12.82
2018-02-08T10:02:47.982Z,12.78
2018-02-08T10:03:48.073Z,13.22
2018-02-08T10:04:48.302Z,14.04
2018-02-08T10:05:48.186Z,15.17
2018-02-08T10:06:48.264Z,15.64
2018-02-08T10:07:48.368Z,15.76
2018-02-08T10:08:48.397Z,15.54
2018-02-08T10:09:48.579Z,15.34
2018-02-08T10:10:48.571Z,15.64
2018-02-08T10:11:48.623Z,16.49
2018-02-08T10:12:48.686Z,17.16
2018-02-08T10:13:48.753Z,17.95
2018-02-08T10:14:48.827Z,19.40
2018-02-08T10:15:48.893Z,20.76
2018-02-08T10:16:48.985Z,21.62
2018-02-08T10:17:49.452Z,22.49
2018-02-08T10:18:49.110Z,23.76
2018-02-08T10:19:49.201Z,25.06
2018-02-08T10:20:49.276Z,26.29
2018-02-08T10:21:49.345Z,27.34
2018-02-08T10:22:49.441Z,28.74
2018-02-08T10:23:49.489Z,29.00
2018-02-08T10:24:49.571Z,28.11
2018-02-08T10:25:49.648Z,27.99
2018-02-08T10:26:49.709Z,29.14
2018-02-08T10:27:49.785Z,30.17
2018-02-08T10:28:49.861Z,31.29
2018-02-08T10:29:49.941Z,31.93
2018-02-08T10:30:50.084Z,33.38
2018-02-08T10:31:50.098Z,34.65
2018-02-08T10:32:50.180Z,35.65
2018-02-08T10:33:50.246Z,36.41
2018-02-08T10:34:50.842Z,37.32
2018-02-08T10:35:50.416Z,38.01
2018-02-08T10:36:50.499Z,38.63
2018-02-08T10:37:50.567Z,38.98
2018-02-08T10:38:50.659Z,39.45
2018-02-08T10:39:50.746Z,39.89
2018-02-08T10:40:50.824Z,40.54
2018-02-08T10:41:50.898Z,41.23
2018-02-08T10:42:50.987Z,41.80
2018-02-08T10:43:51.062Z,42.24
2018-02-08T10:44:51.141Z,42.21
2018-02-08T10:45:51.236Z,42.80
2018-02-08T10:46:51.309Z,43.52
2018-02-08T10:47:51.415Z,43.73
2018-02-08T10:48:51.492Z,44.07
2018-02-08T10:49:51.562Z,44.62
2018-02-08T10:50:51.654Z,45.07
2018-02-08T10:51:51.734Z,45.64
2018-02-08T10:52:51.832Z,46.01
2018-02-08T10:53:51.965Z,46.23
2018-02-08T10:54:52.011Z,45.54
2018-02-08T10:55:52.075Z,43.83
2018-02-08T10:56:52.162Z,43.38
2018-02-08T10:57:52.250Z,43.49
2018-02-08T10:58:52.338Z,43.50
2018-02-08T10:59:52.452Z,43.52
2018-02-08T11:00:52.510Z,43.40
2018-02-08T11:01:52.593Z,43.45
2018-02-08T11:02:52.687Z,43.49
2018-02-08T11:03:52.823Z,42.42
2018-02-08T11:04:52.851Z,40.72
2018-02-08T11:05:52.958Z,40.67
2018-02-08T11:06:53.028Z,40.70
2018-02-08T11:07:53.124Z,41.08
2018-02-08T11:08:53.199Z,41.25
2018-02-08T11:09:53.283Z,40.87
2018-02-08T11:10:53.363Z,40.01
2018-02-08T11:11:53.450Z,39.45
2018-02-08T11:12:53.575Z,39.69
2018-02-08T11:13:53.639Z,40.34
2018-02-08T11:14:53.701Z,41.21
2018-02-08T11:15:53.796Z,41.70
2018-02-08T11:16:53.883Z,42.08
2018-02-08T11:17:53.983Z,42.49
2018-02-08T11:18:54.048Z,42.68
2018-02-08T11:19:54.130Z,42.77
2018-02-08T11:20:54.321Z,42.21
2018-02-08T11:21:54.297Z,41.90
2018-02-08T11:22:54.393Z,41.32
2018-02-08T11:23:54.470Z,41.23
2018-02-08T11:24:54.566Z,41.11
2018-02-08T11:25:54.640Z,41.07
2018-02-08T11:26:54.732Z,40.95
2018-02-08T11:27:59.819Z,41.44
2018-02-08T11:28:54.894Z,41.99
2018-02-08T11:29:54.978Z,42.45
2018-02-08T11:30:55.060Z,42.91
2018-02-08T11:31:55.157Z,43.47
2018-02-08T11:32:55.232Z,43.59
2018-02-08T11:33:55.326Z,43.50
2018-02-08T11:34:55.401Z,43.54
2018-02-08T11:35:55.508Z,43.60
2018-02-08T11:36:55.580Z,43.60
2018-02-08T11:37:55.658Z,43.41
2018-02-08T11:38:55.746Z,43.00
2018-02-08T11:39:55.858Z,42.93
2018-02-08T11:40:55.916Z,42.89
2018-02-08T11:41:56.000Z,43.05
2018-02-08T11:42:56.091Z,42.87
2018-02-08T11:43:56.179Z,42.84
2018-02-08T11:44:56.262Z,42.89
2018-02-08T11:45:56.347Z,43.18
2018-02-08T11:46:56.432Z,43.35
2018-02-08T11:47:56.603Z,43.56
2018-02-08T11:48:56.604Z,43.53
2018-02-08T11:49:56.713Z,43.47
2018-02-08T11:50:56.780Z,43.47
2018-02-08T11:51:56.869Z,43.30
2018-02-08T11:52:57.010Z,43.23
2018-02-08T11:53:57.035Z,42.89
2018-02-08T11:54:57.115Z,42.91
2018-02-08T11:55:57.214Z,42.87
2018-02-08T11:56:57.300Z,42.68
2018-02-08T11:57:57.388Z,42.70
2018-02-08T11:58:57.469Z,42.54
2018-02-08T11:59:57.554Z,42.64
2018-02-08T12:00:57.670Z,42.68
2018-02-08T12:01:57.782Z,42.65
2018-02-08T12:02:57.807Z,42.83
2018-02-08T12:03:57.895Z,42.81
2018-02-08T12:04:58.025Z,42.73
2018-02-08T12:05:58.092Z,42.83
2018-02-08T12:06:58.166Z,42.91
2018-02-08T12:07:58.256Z,43.12
2018-02-08T12:08:58.330Z,43.34
2018-02-08T12:09:58.409Z,43.42
2018-02-08T12:10:58.503Z,43.38
2018-02-08T12:11:58.621Z,43.07
2018-02-08T12:12:58.690Z,42.12
2018-02-08T12:13:58.769Z,41.36
2018-02-08T12:14:58.847Z,41.11
2018-02-08T12:15:58.931Z,40.94
2018-02-08T12:16:59.022Z,40.82
2018-02-08T12:17:59.112Z,40.54
2018-02-08T12:18:59.215Z,40.27
2018-02-08T12:19:59.278Z,40.25
2018-02-08T12:20:59.364Z,40.23
2018-02-08T12:21:59.450Z,40.16
2018-02-08T12:22:59.556Z,39.97
2018-02-08T12:23:59.612Z,39.94
2018-02-08T12:24:59.715Z,39.79
2018-02-08T12:25:59.788Z,39.84
2018-02-08T12:26:59.881Z,39.77
2018-02-08T12:28:04.830Z,39.79
2018-02-08T12:29:00.310Z,39.72
2018-02-08T12:30:00.127Z,39.62
2018-02-08T12:31:00.221Z,39.30
2018-02-08T12:32:00.285Z,39.07
2018-02-08T12:33:00.399Z,38.95
2018-02-08T12:34:00.477Z,38.72
2018-02-08T12:35:00.674Z,38.74
2018-02-08T12:36:00.806Z,38.61
2018-02-08T12:37:00.754Z,38.61
2018-02-08T12:38:00.802Z,38.19
2018-02-08T12:39:00.965Z,37.84
2018-02-08T12:40:00.976Z,37.28
2018-02-08T12:41:02.290Z,36.85
2018-02-08T12:42:01.993Z,36.59
2018-02-08T12:43:01.231Z,36.16
2018-02-08T12:44:01.306Z,35.59
2018-02-08T12:45:01.396Z,34.91
2018-02-08T12:46:01.487Z,34.19
2018-02-08T12:47:01.581Z,33.51
2018-02-08T12:48:01.643Z,33.31
2018-02-08T12:49:01.723Z,33.59
2018-02-08T12:50:01.814Z,33.88
2018-02-08T12:51:01.896Z,34.09
2018-02-08T12:52:01.977Z,34.35
2018-02-08T12:53:02.081Z,34.40
2018-02-08T12:54:02.235Z,34.92
2018-02-08T12:55:02.218Z,35.31